Deer Mountain, UT

12:58 PM MST on December 25, 2014 (GMT -0700)
Heber | Change Station
CLOSE
Current Station
Airport
Location: Heber,
Elevation: 5636 ft
Nearby Weather Stations
Active Advisory: Winter Storm Warning Active Notice: Public Information Statement

Elev 5636 ft 40.48 °N, 111.43 °W | Updated 23 minutes ago

Overcast
Overcast
27 °F
Feels Like 18 °F
N
8
Wind Variable Wind from SW

Today
High -- | Low -- °F
--% Chance of Precip.
Yesterday
High -- | Low -- °F
Precip. -- in
7:47 AM 5:03 PM
Waxing Crescent, 18% visible
Pressure 29.59 in
Visibility 3.0 miles
Clouds Mostly Cloudy 1600 ft
Overcast 2200 ft
Windchill 18 °F
Dew Point 23 °F
Humidity 86%
Rainfall 0.00 in
Snow Depth Not available.
UV 1 out of 12
Pollen .10 out of 12
Air Quality Not available.
Flu Activity Not available.
METAR K36U 251935Z AUTO 22007KT 3SM -SN BKN016 OVC022 M03/M05 A2959 RMK AO2

More Conditions Fewer Conditions

Pressure 29.59 in
Visibility 3.0 miles
Clouds Mostly Cloudy 1600 ft
Overcast 2200 ft
Windchill 18 °F
Dew Point 23 °F
Humidity 86%
Rainfall 0.00 in
Snow Depth Not available.
UV 1 out of 12
Pollen .10 out of 12
Air Quality Not available.
Flu Activity Not available.
METAR K36U 251935Z AUTO 22007KT 3SM -SN BKN016 OVC022 M03/M05 A2959 RMK AO2

More Conditions Fewer Conditions

10-Day Weather Forecast

Almanac

Astronomy

Dec. 25, 2014 Rise Set
Actual Time
Civil Twilight
Nautical Twilight
Astronomical Twilight
Moon
Length of Visible Light
Length of Day
Tomorrow will be .
, % of the Moon is Illuminated

Today's Extremes

State Highs State Lows

Community

WunderPhotos

Upload Photos

1,780,376 photos uploaded!

WunderBlogs® & News

Nearby

Air Quality

  Air Quality AQ Index Pollutant
Not available.

Snow Depth

Station Depth Elevation

Earthquake Activity

City Distance Mag. Time & Date
Minimum magnitude displayed is 2.5.

Coastal Water Temperatures

Place Temperature

Nearby Weather Stations